createdAt,value
2023-02-02T00:01:30.099Z,1.30
2023-02-02T00:03:57.954Z,1.30
2023-02-02T00:06:27.249Z,1.80
2023-02-02T00:08:56.789Z,1.30
2023-02-02T00:11:25.147Z,1.20
2023-02-02T00:13:53.796Z,1.00
2023-02-02T00:16:35.638Z,1.10
2023-02-02T00:19:06.481Z,1.27
2023-02-02T00:21:34.053Z,1.50
2023-02-02T00:24:01.543Z,1.60
2023-02-02T00:26:28.899Z,1.58
2023-02-02T00:28:57.349Z,1.42
2023-02-02T00:31:24.805Z,1.50
2023-02-02T00:33:52.153Z,1.77
2023-02-02T00:36:20.734Z,1.42
2023-02-02T00:38:49.549Z,1.65
2023-02-02T00:41:17.231Z,0.93
2023-02-02T00:43:44.221Z,2.15
2023-02-02T00:46:18.180Z,0.95
2023-02-02T00:48:45.854Z,0.80
2023-02-02T00:51:12.883Z,0.50
2023-02-02T00:53:39.957Z,0.95
2023-02-02T00:56:07.415Z,0.55
2023-02-02T00:58:34.748Z,1.00
2023-02-02T01:01:01.922Z,1.17
2023-02-02T01:03:31.119Z,0.68
2023-02-02T01:05:58.039Z,1.05
2023-02-02T01:08:25.914Z,0.63
2023-02-02T01:10:52.889Z,0.80
2023-02-02T01:13:19.711Z,0.77
2023-02-02T01:15:46.688Z,0.75
2023-02-02T01:18:13.631Z,1.00
2023-02-02T01:20:42.177Z,1.10
2023-02-02T01:23:09.143Z,0.80
2023-02-02T01:25:36.059Z,0.85
2023-02-02T01:28:03.526Z,0.95
2023-02-02T01:30:30.763Z,0.70
2023-02-02T01:32:57.914Z,1.35
2023-02-02T01:35:25.405Z,1.27
2023-02-02T01:37:54.104Z,1.30
2023-02-02T01:40:21.058Z,1.40
2023-02-02T01:42:48.013Z,0.90
2023-02-02T01:45:25.491Z,1.02
2023-02-02T01:47:56.648Z,0.82
2023-02-02T01:50:29.776Z,1.13
2023-02-02T01:53:02.001Z,1.00
2023-02-02T01:58:03.723Z,0.95
2023-02-02T02:00:30.765Z,0.90
2023-02-02T02:03:02.458Z,1.00
2023-02-02T02:05:35.664Z,0.90
2023-02-02T02:08:12.265Z,0.98
2023-02-02T02:10:39.427Z,1.08
2023-02-02T02:13:07.091Z,0.68
2023-02-02T02:15:44.543Z,0.50
2023-02-02T02:18:31.855Z,0.80
2023-02-02T02:21:46.022Z,0.90
2023-02-02T02:24:52.760Z,0.70
2023-02-02T02:28:14.149Z,1.40
2023-02-02T02:31:39.890Z,1.88
2023-02-02T02:34:16.221Z,0.70
2023-02-02T02:36:51.457Z,0.60
2023-02-02T02:39:28.729Z,0.88
2023-02-02T02:42:02.686Z,0.93
2023-02-02T02:44:33.091Z,0.80
2023-02-02T02:47:02.828Z,1.00
2023-02-02T02:49:30.448Z,0.82
2023-02-02T02:51:57.546Z,1.00
2023-02-02T02:54:41.135Z,0.73
2023-02-02T02:57:46.589Z,0.77
2023-02-02T03:00:36.267Z,0.88
2023-02-02T03:03:14.066Z,1.65
2023-02-02T03:05:52.750Z,1.08
2023-02-02T03:08:30.673Z,1.45
2023-02-02T03:10:59.447Z,0.93
2023-02-02T03:13:28.134Z,1.20
2023-02-02T03:15:56.562Z,1.17
2023-02-02T03:18:29.404Z,1.30
2023-02-02T03:20:56.953Z,1.00
2023-02-02T03:23:25.316Z,1.23
2023-02-02T03:25:52.609Z,1.05
2023-02-02T03:28:23.926Z,1.10
2023-02-02T03:30:53.414Z,1.48
2023-02-02T03:33:21.415Z,1.33
2023-02-02T03:35:50.159Z,1.35
2023-02-02T03:38:17.875Z,1.20
2023-02-02T03:40:44.985Z,1.02
2023-02-02T03:46:06.261Z,0.68
2023-02-02T03:48:37.624Z,0.60
2023-02-02T03:51:11.563Z,0.93
2023-02-02T03:53:39.253Z,0.98
2023-02-02T03:56:07.282Z,0.80
2023-02-02T03:58:34.422Z,0.73
2023-02-02T04:01:04.036Z,0.63
2023-02-02T04:03:31.213Z,0.63
2023-02-02T04:05:58.291Z,0.57
2023-02-02T04:08:26.506Z,0.80
2023-02-02T04:10:53.495Z,1.00
2023-02-02T04:13:20.815Z,0.57
2023-02-02T04:15:47.737Z,0.80
2023-02-02T04:18:14.594Z,0.85
2023-02-02T04:20:41.967Z,0.30
2023-02-02T04:23:08.772Z,0.50
2023-02-02T04:25:37.125Z,0.70
2023-02-02T04:28:05.575Z,0.70
2023-02-02T04:30:32.436Z,0.52
2023-02-02T04:32:59.460Z,0.80
2023-02-02T04:35:26.457Z,0.60
2023-02-02T04:37:55.453Z,0.70
2023-02-02T04:40:22.485Z,0.88
2023-02-02T04:45:43.479Z,0.70
2023-02-02T04:48:10.610Z,0.40
2023-02-02T04:50:37.753Z,0.52
2023-02-02T04:53:05.803Z,0.85
2023-02-02T04:55:37.399Z,1.02
2023-02-02T04:58:06.408Z,0.80
2023-02-02T05:00:33.426Z,1.02
2023-02-02T05:03:00.576Z,0.95
2023-02-02T05:05:27.834Z,0.98
2023-02-02T05:07:54.985Z,1.00
2023-02-02T05:10:22.412Z,0.63
2023-02-02T05:12:51.936Z,1.00
2023-02-02T05:15:21.043Z,1.20
2023-02-02T05:17:48.609Z,1.00
2023-02-02T05:20:16.072Z,1.13
2023-02-02T05:22:49.753Z,1.23
2023-02-02T05:25:18.653Z,0.60
2023-02-02T05:27:47.147Z,0.52
2023-02-02T05:30:15.138Z,1.10
2023-02-02T05:32:43.522Z,0.82
2023-02-02T05:35:11.057Z,1.15
2023-02-02T05:37:37.922Z,1.20
2023-02-02T05:40:05.932Z,1.23
2023-02-02T05:42:32.966Z,0.70
2023-02-02T05:45:00.001Z,0.82
2023-02-02T05:47:26.946Z,0.95
2023-02-02T05:49:55.351Z,2.28
2023-02-02T05:52:25.490Z,1.27
2023-02-02T05:54:52.560Z,1.33
2023-02-02T05:57:19.397Z,0.93
2023-02-02T05:59:46.285Z,0.88
2023-02-02T06:02:13.997Z,1.30
2023-02-02T06:04:40.891Z,1.23
2023-02-02T06:07:09.178Z,1.10
2023-02-02T06:09:36.249Z,1.10
2023-02-02T06:12:03.548Z,1.50
2023-02-02T06:14:30.676Z,1.25
2023-02-02T06:16:57.632Z,1.02
2023-02-02T06:19:24.652Z,1.25
2023-02-02T06:21:51.554Z,1.42
2023-02-02T06:24:19.913Z,1.23
2023-02-02T06:26:47.067Z,1.55
2023-02-02T06:29:14.323Z,0.90
2023-02-02T06:31:41.451Z,0.85
2023-02-02T06:34:12.146Z,2.08
2023-02-02T06:36:39.222Z,1.17
2023-02-02T06:39:06.391Z,1.40
2023-02-02T06:41:35.252Z,1.02
2023-02-02T06:44:02.185Z,1.38
2023-02-02T06:46:29.177Z,1.20
2023-02-02T06:48:56.068Z,1.50
2023-02-02T06:51:23.201Z,0.95
2023-02-02T06:53:50.666Z,1.52
2023-02-02T06:56:17.795Z,0.95
2023-02-02T06:58:46.002Z,1.20
2023-02-02T07:01:14.341Z,0.80
2023-02-02T07:03:41.684Z,1.23
2023-02-02T07:06:14.171Z,1.20
2023-02-02T07:11:12.824Z,0.63
2023-02-02T07:13:41.752Z,0.82
2023-02-02T07:16:10.293Z,1.00
2023-02-02T07:18:37.275Z,1.02
2023-02-02T07:21:07.014Z,1.00
2023-02-02T07:23:35.020Z,1.15
2023-02-02T07:26:04.916Z,1.33
2023-02-02T07:28:31.987Z,1.25
2023-02-02T07:31:00.286Z,0.90
2023-02-02T07:33:28.537Z,1.55
2023-02-02T07:35:55.406Z,1.05
2023-02-02T07:38:22.628Z,0.98
2023-02-02T07:40:49.681Z,0.98
2023-02-02T07:43:17.035Z,0.77
2023-02-02T07:45:44.044Z,1.10
2023-02-02T07:48:11.048Z,1.20
2023-02-02T07:50:39.553Z,0.75
2023-02-02T07:53:06.869Z,0.90
2023-02-02T07:55:33.733Z,0.93
2023-02-02T07:58:00.746Z,0.98
2023-02-02T08:00:28.496Z,1.15
2023-02-02T08:02:55.540Z,1.00
2023-02-02T08:05:23.395Z,1.00
2023-02-02T08:07:52.049Z,0.50
2023-02-02T08:10:18.955Z,0.95
2023-02-02T08:12:45.857Z,0.82
2023-02-02T08:15:12.775Z,0.75
2023-02-02T08:17:39.822Z,0.68
2023-02-02T08:20:08.141Z,0.52
2023-02-02T08:22:35.575Z,0.75
2023-02-02T08:25:04.170Z,0.80
2023-02-02T08:27:31.382Z,1.35
2023-02-02T08:29:58.188Z,0.43
2023-02-02T08:32:25.335Z,0.60
2023-02-02T08:34:52.359Z,0.93
2023-02-02T08:37:19.354Z,0.65
2023-02-02T08:39:46.490Z,1.25
2023-02-02T08:42:14.654Z,0.80
2023-02-02T08:46:00.434Z,1.02
2023-02-02T08:47:29.637Z,0.68
2023-02-02T08:49:56.663Z,0.70
2023-02-02T08:52:25.683Z,0.65
2023-02-02T08:54:52.739Z,0.77
2023-02-02T08:57:20.912Z,0.80
2023-02-02T08:59:47.771Z,0.73
2023-02-02T09:02:14.816Z,1.58
2023-02-02T09:04:42.292Z,0.60
2023-02-02T09:07:10.149Z,0.60
2023-02-02T09:09:37.278Z,0.93
2023-02-02T09:12:04.768Z,0.90
2023-02-02T09:14:33.448Z,0.40
2023-02-02T09:17:00.464Z,3.65
2023-02-02T09:19:27.518Z,1.35
2023-02-02T09:21:54.527Z,1.00
2023-02-02T09:24:22.372Z,0.95
2023-02-02T09:26:49.491Z,0.85
2023-02-02T09:29:17.730Z,0.80
2023-02-02T09:31:46.164Z,1.02
2023-02-02T09:34:15.582Z,1.13
2023-02-02T09:36:44.298Z,1.10
2023-02-02T09:39:12.736Z,0.80
2023-02-02T09:42:12.963Z,1.75
2023-02-02T09:44:59.506Z,1.10
2023-02-02T09:47:52.929Z,1.50
2023-02-02T09:50:38.920Z,0.90
2023-02-02T09:53:18.499Z,1.45
2023-02-02T09:55:50.009Z,0.90
2023-02-02T09:58:22.639Z,1.00
2023-02-02T10:00:59.704Z,1.30
2023-02-02T10:03:37.755Z,0.98
2023-02-02T10:06:21.415Z,0.68
2023-02-02T10:08:57.276Z,0.70
2023-02-02T10:11:34.340Z,0.90
2023-02-02T10:14:11.634Z,1.40
2023-02-02T10:16:41.170Z,1.10
2023-02-02T10:19:13.883Z,0.90
2023-02-02T10:21:48.456Z,0.88
2023-02-02T10:24:20.536Z,0.55
2023-02-02T10:26:51.831Z,0.80
2023-02-02T10:29:48.079Z,0.75
2023-02-02T10:32:24.573Z,0.50
2023-02-02T10:35:16.592Z,0.85
2023-02-02T10:37:53.532Z,0.80
2023-02-02T10:40:39.585Z,0.60
2023-02-02T10:43:52.272Z,1.13
2023-02-02T10:46:25.079Z,0.90
2023-02-02T10:49:10.200Z,0.75
2023-02-02T10:51:39.670Z,0.70
2023-02-02T10:54:31.455Z,0.60
2023-02-02T10:57:04.723Z,1.50
2023-02-02T10:59:38.507Z,1.10
2023-02-02T11:05:02.271Z,0.90
2023-02-02T11:07:30.521Z,0.90
2023-02-02T11:09:57.785Z,0.90
2023-02-02T11:12:32.542Z,0.75
2023-02-02T11:15:02.103Z,0.80
2023-02-02T11:17:29.406Z,0.80
2023-02-02T11:19:56.450Z,1.15
2023-02-02T11:22:32.233Z,0.90
2023-02-02T11:25:02.006Z,1.00
2023-02-02T11:27:33.797Z,0.80
2023-02-02T11:30:20.656Z,0.73
2023-02-02T11:32:47.724Z,0.90
2023-02-02T11:35:21.543Z,0.70
2023-02-02T11:38:09.549Z,0.70
2023-02-02T11:40:40.125Z,0.68
2023-02-02T11:43:18.163Z,0.90
2023-02-02T11:45:55.341Z,2.70
2023-02-02T11:48:28.129Z,1.23
2023-02-02T11:50:59.327Z,2.00
2023-02-02T11:53:31.574Z,1.83
2023-02-02T11:56:04.019Z,1.33
2023-02-02T11:58:44.901Z,2.33
2023-02-02T12:01:27.302Z,1.30
2023-02-02T12:03:57.112Z,0.88
2023-02-02T12:06:26.802Z,0.88
2023-02-02T12:08:59.864Z,1.00
2023-02-02T12:11:50.851Z,1.15
2023-02-02T12:14:33.943Z,0.70
2023-02-02T12:17:26.592Z,1.20
2023-02-02T12:20:12.714Z,1.30
2023-02-02T12:23:11.127Z,1.00
2023-02-02T12:26:10.755Z,0.60
2023-02-02T12:29:09.227Z,1.08
2023-02-02T12:31:53.439Z,0.73
2023-02-02T12:34:37.516Z,0.80
2023-02-02T12:37:23.326Z,0.90
2023-02-02T12:40:11.542Z,0.90
2023-02-02T12:42:59.150Z,0.88
2023-02-02T12:45:49.665Z,1.35
2023-02-02T12:48:43.533Z,3.03
2023-02-02T12:51:30.920Z,1.05
2023-02-02T12:57:49.606Z,0.95
2023-02-02T13:00:45.092Z,1.40
2023-02-02T13:03:30.135Z,1.00
2023-02-02T13:06:13.458Z,1.00
2023-02-02T13:08:51.045Z,0.70
2023-02-02T13:11:32.306Z,1.00
2023-02-02T13:14:09.503Z,1.10
2023-02-02T13:16:39.551Z,0.63
2023-02-02T13:19:14.706Z,1.08
2023-02-02T13:21:43.911Z,0.85
2023-02-02T13:24:21.354Z,0.47
2023-02-02T13:26:49.475Z,0.88
2023-02-02T13:29:33.320Z,0.90
2023-02-02T13:32:07.032Z,0.70
2023-02-02T13:34:42.434Z,0.70
2023-02-02T13:37:18.217Z,0.77
2023-02-02T13:39:53.814Z,0.85
2023-02-02T13:42:38.146Z,0.70
2023-02-02T13:45:34.493Z,0.57
2023-02-02T13:48:21.028Z,0.68
2023-02-02T13:51:18.730Z,0.47
2023-02-02T13:54:11.679Z,0.60
2023-02-02T13:56:57.165Z,0.90
2023-02-02T13:59:52.494Z,0.68
2023-02-02T14:02:32.153Z,0.68
2023-02-02T14:05:02.667Z,0.80
2023-02-02T14:07:41.679Z,0.80
2023-02-02T14:10:25.185Z,0.80
2023-02-02T14:12:53.998Z,1.05
2023-02-02T14:15:38.471Z,0.77
2023-02-02T14:18:07.162Z,0.80
2023-02-02T14:20:47.014Z,3.17
2023-02-02T14:23:53.081Z,1.38
2023-02-02T14:26:42.591Z,0.63
2023-02-02T14:29:36.031Z,0.60
2023-02-02T14:32:41.011Z,0.40
2023-02-02T14:36:02.432Z,0.50
2023-02-02T14:39:10.621Z,0.70
2023-02-02T14:42:09.923Z,0.40
2023-02-02T14:44:37.064Z,0.95
2023-02-02T14:47:24.370Z,0.50
2023-02-02T14:50:23.006Z,0.68
2023-02-02T14:53:04.662Z,0.60
2023-02-02T14:55:32.441Z,0.52
2023-02-02T14:58:04.146Z,0.60
2023-02-02T15:00:34.838Z,0.50
2023-02-02T15:03:34.793Z,0.60
2023-02-02T15:06:05.754Z,0.57
2023-02-02T15:08:34.131Z,0.73
2023-02-02T15:11:06.485Z,0.60
2023-02-02T15:13:37.148Z,0.60
2023-02-02T15:16:24.142Z,0.70
2023-02-02T15:19:05.040Z,0.60
2023-02-02T15:21:34.228Z,0.47
2023-02-02T15:24:06.049Z,0.40
2023-02-02T15:26:40.655Z,0.43
2023-02-02T15:29:19.293Z,0.70
2023-02-02T15:31:52.145Z,0.50
2023-02-02T15:34:27.775Z,0.60
2023-02-02T15:36:59.855Z,0.40
2023-02-02T15:42:03.191Z,0.40
2023-02-02T15:44:30.268Z,0.57
2023-02-02T15:46:57.939Z,0.65
2023-02-02T15:49:34.688Z,0.63
2023-02-02T15:52:13.781Z,0.65
2023-02-02T15:54:52.344Z,0.75
2023-02-02T15:57:29.772Z,0.90
2023-02-02T15:59:57.964Z,0.80
2023-02-02T16:02:35.984Z,0.80
2023-02-02T16:05:23.622Z,0.90
2023-02-02T16:08:03.802Z,0.80
2023-02-02T16:10:35.228Z,0.70
2023-02-02T16:13:03.312Z,0.85
2023-02-02T16:15:30.907Z,1.10
2023-02-02T16:17:59.118Z,1.33
2023-02-02T16:20:28.516Z,1.20
2023-02-02T16:22:58.831Z,0.80
2023-02-02T16:25:27.711Z,0.70
2023-02-02T16:28:00.299Z,0.68
2023-02-02T16:30:33.025Z,0.70
2023-02-02T16:33:33.880Z,0.47
2023-02-02T16:36:03.173Z,0.50
2023-02-02T16:38:34.702Z,0.60
2023-02-02T16:41:04.927Z,0.40
2023-02-02T16:43:35.589Z,0.52
2023-02-02T16:46:06.791Z,0.70
2023-02-02T16:48:36.835Z,0.80
2023-02-02T16:51:22.464Z,0.90
2023-02-02T16:54:00.865Z,1.10
2023-02-02T16:56:34.626Z,1.15
2023-02-02T16:59:14.897Z,1.10
2023-02-02T17:01:48.393Z,1.20
2023-02-02T17:04:23.939Z,1.08
2023-02-02T17:06:53.406Z,1.20
2023-02-02T17:09:35.677Z,0.90
2023-02-02T17:12:35.342Z,1.23
2023-02-02T17:15:34.504Z,1.23
2023-02-02T17:18:03.708Z,1.52
2023-02-02T17:20:31.701Z,0.90
2023-02-02T17:23:03.561Z,0.85
2023-02-02T17:25:36.839Z,1.20
2023-02-02T17:28:10.727Z,1.33
2023-02-02T17:30:41.570Z,1.25
2023-02-02T17:33:12.357Z,5.20
2023-02-02T17:35:54.706Z,2.30
2023-02-02T17:38:24.789Z,2.00
2023-02-02T17:40:53.855Z,1.98
2023-02-02T17:43:24.877Z,1.85
2023-02-02T17:45:53.326Z,1.67
2023-02-02T17:48:20.300Z,1.80
2023-02-02T17:50:47.436Z,1.60
2023-02-02T17:53:19.143Z,1.90
2023-02-02T17:55:47.928Z,1.98
2023-02-02T17:58:15.430Z,2.13
2023-02-02T18:00:44.033Z,3.40
2023-02-02T18:03:19.704Z,4.80
2023-02-02T18:05:46.794Z,14.60
2023-02-02T18:08:14.316Z,8.77
2023-02-02T18:10:42.491Z,5.75
2023-02-02T18:13:14.204Z,4.15
2023-02-02T18:15:41.083Z,2.95
2023-02-02T18:18:09.869Z,3.85
2023-02-02T18:20:41.581Z,3.83
2023-02-02T18:23:08.851Z,3.90
2023-02-02T18:28:30.078Z,5.88
2023-02-02T18:30:56.974Z,5.70
2023-02-02T18:33:23.919Z,4.25
2023-02-02T18:35:52.137Z,4.97
2023-02-02T18:38:19.204Z,4.70
2023-02-02T18:40:54.735Z,3.80
2023-02-02T18:43:23.137Z,3.50
2023-02-02T18:45:59.129Z,3.33
2023-02-02T18:48:26.421Z,4.03
2023-02-02T18:50:54.610Z,4.55
2023-02-02T18:53:21.667Z,4.10
2023-02-02T18:55:48.692Z,3.60
2023-02-02T18:58:15.701Z,3.22
2023-02-02T19:00:43.803Z,3.03
2023-02-02T19:03:10.733Z,3.10
2023-02-02T19:05:37.864Z,3.00
2023-02-02T19:08:06.387Z,2.70
2023-02-02T19:10:33.569Z,2.75
2023-02-02T19:13:14.704Z,3.50
2023-02-02T19:15:42.338Z,3.40
2023-02-02T19:18:14.497Z,2.70
2023-02-02T19:20:42.635Z,2.78
2023-02-02T19:23:14.081Z,1.80
2023-02-02T19:25:45.109Z,2.40
2023-02-02T19:28:22.347Z,2.30
2023-02-02T19:30:50.482Z,2.78
2023-02-02T19:33:18.543Z,2.47
2023-02-02T19:35:48.288Z,2.03
2023-02-02T19:38:17.354Z,2.17
2023-02-02T19:40:44.826Z,2.15
2023-02-02T19:43:27.084Z,2.03
2023-02-02T19:45:55.177Z,1.70
2023-02-02T19:48:26.933Z,1.52
2023-02-02T19:50:55.358Z,1.48
2023-02-02T19:53:26.989Z,1.42
2023-02-02T19:55:54.261Z,2.20
2023-02-02T19:58:23.338Z,1.98
2023-02-02T20:00:53.241Z,1.48
2023-02-02T20:03:23.709Z,1.77
2023-02-02T20:05:53.070Z,1.90
2023-02-02T20:08:26.523Z,2.00
2023-02-02T20:10:55.764Z,2.60
2023-02-02T20:13:32.145Z,2.08
2023-02-02T20:16:03.885Z,2.35
2023-02-02T20:18:41.934Z,2.50
2023-02-02T20:21:19.932Z,2.28
2023-02-02T20:23:48.232Z,2.25
2023-02-02T20:26:23.836Z,2.22
2023-02-02T20:28:53.493Z,2.70
2023-02-02T20:31:24.172Z,2.50
2023-02-02T20:33:55.537Z,2.72
2023-02-02T20:36:34.421Z,2.60
2023-02-02T20:39:24.000Z,3.10
2023-02-02T20:41:51.035Z,2.95
2023-02-02T20:44:18.790Z,2.85
2023-02-02T20:46:45.830Z,2.55
2023-02-02T20:49:12.870Z,2.78
2023-02-02T20:51:40.054Z,2.97
2023-02-02T20:54:09.497Z,2.50
2023-02-02T20:56:37.128Z,2.40
2023-02-02T20:59:06.942Z,2.80
2023-02-02T21:01:34.469Z,2.17
2023-02-02T21:04:01.594Z,2.72
2023-02-02T21:06:28.877Z,2.90
2023-02-02T21:08:55.765Z,2.67
2023-02-02T21:11:23.997Z,1.92
2023-02-02T21:13:50.841Z,2.88
2023-02-02T21:16:17.780Z,3.05
2023-02-02T21:18:47.153Z,2.83
2023-02-02T21:21:14.641Z,2.08
2023-02-02T21:23:41.971Z,2.90
2023-02-02T21:26:08.940Z,1.83
2023-02-02T21:28:37.340Z,2.30
2023-02-02T21:31:05.769Z,2.30
2023-02-02T21:33:33.020Z,2.47
2023-02-02T21:36:03.394Z,2.53
2023-02-02T21:38:30.830Z,2.45
2023-02-02T21:40:57.775Z,2.92
2023-02-02T21:43:24.584Z,2.80
2023-02-02T21:45:53.203Z,2.90
2023-02-02T21:48:29.305Z,2.00
2023-02-02T21:50:56.819Z,2.67
2023-02-02T21:53:26.898Z,2.20
2023-02-02T21:55:56.069Z,2.20
2023-02-02T21:58:25.778Z,2.20
2023-02-02T22:00:58.386Z,2.38
2023-02-02T22:03:32.300Z,2.05
2023-02-02T22:06:27.140Z,2.30
2023-02-02T22:09:01.729Z,2.17
2023-02-02T22:11:36.280Z,1.98
2023-02-02T22:14:18.137Z,1.90
2023-02-02T22:16:50.229Z,2.72
2023-02-02T22:19:29.949Z,2.20
2023-02-02T22:22:14.544Z,2.65
2023-02-02T22:24:42.640Z,2.58
2023-02-02T22:27:19.775Z,2.70
2023-02-02T22:29:46.848Z,3.05
2023-02-02T22:32:15.373Z,2.63
2023-02-02T22:34:42.262Z,2.55
2023-02-02T22:37:09.253Z,2.22
2023-02-02T22:39:36.219Z,2.65
2023-02-02T22:42:03.029Z,3.08
2023-02-02T22:44:29.857Z,2.30
2023-02-02T22:46:56.916Z,1.90
2023-02-02T22:49:25.168Z,1.73
2023-02-02T22:51:54.104Z,2.10
2023-02-02T22:54:21.196Z,2.00
2023-02-02T22:56:48.342Z,1.92
2023-02-02T22:59:15.129Z,1.70
2023-02-02T23:01:42.104Z,1.50
2023-02-02T23:04:09.447Z,1.48
2023-02-02T23:06:37.926Z,1.40
2023-02-02T23:09:05.424Z,1.67
2023-02-02T23:11:32.207Z,1.50
2023-02-02T23:13:59.122Z,1.48
2023-02-02T23:16:25.974Z,1.30
2023-02-02T23:18:52.990Z,1.23
2023-02-02T23:21:19.973Z,1.58
2023-02-02T23:23:48.559Z,1.30
2023-02-02T23:26:16.027Z,1.00
2023-02-02T23:28:43.322Z,1.15
2023-02-02T23:31:10.270Z,1.10
2023-02-02T23:33:37.405Z,1.15
2023-02-02T23:36:05.072Z,1.40
2023-02-02T23:38:32.122Z,1.35
2023-02-02T23:41:00.275Z,1.20
2023-02-02T23:43:27.645Z,1.30
2023-02-02T23:45:54.854Z,1.30
2023-02-02T23:48:22.064Z,1.30
2023-02-02T23:50:49.046Z,1.17
2023-02-02T23:53:16.586Z,1.38
2023-02-02T23:55:44.587Z,1.40
2023-02-02T23:58:13.534Z,1.50
